Station Historical Data
Daily Summary for April 17, 2011 Units:  English    Metric   Both
« Previous Day
Next Day »
Daily Weekly Monthly Yearly Custom
  High: Low: Average:
Temperature: 70.9 °F 36.2 °F 53.7 °F
Dew Point: 46.3 °F 35.2 °F 40.6 °F
Humidity: 98% 33% 66%
Wind Speed: 12.0mph 0.0mph 3mph
Wind Gust: 15.0mph - -
Wind- - SSE
Pressure: 30.10 in 29.93 in -
Precipitation: 0.00 in    
Historical Graphs
 
 
Tabular Data for April 17, 2011
Time Temperature Dew Point Pressure Wind Wind Speed Wind Gust Humidity Rainfall Rate (Hourly) Conditions
00:00 41.7 °F 38.1 °F 30.04 in Calm   1.0 mph 87% 0.00 in
00:01 41.7 °F 38.1 °F 30.04 in WNW 1.0 mph 1.0 mph 87% 0.00 in
00:06 41.9 °F 38.3 °F 30.04 in WNW 1.0 mph 1.0 mph 87% 0.00 in
00:07 41.9 °F 38.3 °F 30.04 in WNW 1.0 mph 1.0 mph 87% 0.00 in
00:12 42.1 °F 38.5 °F 30.04 in WNW 1.0 mph 1.0 mph 87% 0.00 in
00:17 41.7 °F 38.4 °F 30.05 in SE 1.0 mph 1.0 mph 88% 0.00 in
00:22 41.4 °F 38.1 °F 30.05 in SE 1.0 mph 1.0 mph 88% 0.00 in
00:27 41.4 °F 38.1 °F 30.05 in SE 1.0 mph 1.0 mph 88% 0.00 in
00:30 41.3 °F 38.0 °F 30.05 in ESE 1.0 mph 1.0 mph 88% 0.00 in
00:32 41.3 °F 38.0 °F 30.04 in ESE 1.0 mph 2.0 mph 88% 0.00 in
00:36 41.1 °F 37.8 °F 30.05 in SE 1.0 mph 2.0 mph 88% 0.00 in
00:38 41.1 °F 38.1 °F 30.05 in SE 1.0 mph 2.0 mph 89% 0.00 in
00:43 40.8 °F 37.8 °F 30.05 in SE 1.0 mph 1.0 mph 89% 0.00 in
00:48 40.6 °F 37.9 °F 30.04 in Calm   1.0 mph 90% 0.00 in
00:53 40.6 °F 37.9 °F 30.05 in Calm     90% 0.00 in
00:54 40.5 °F 37.8 °F 30.05 in Calm     90% 0.00 in
00:55 40.3 °F 37.3 °F 30.05 in Calm   1.0 mph 89% 0.00 in
00:58 40.0 °F 37.0 °F 30.05 in Calm   1.0 mph 89% 0.00 in
01:03 39.6 °F 37.2 °F 30.05 in SE 1.0 mph 1.0 mph 91% 0.00 in
01:09 39.3 °F 36.9 °F 30.05 in Calm   1.0 mph 91% 0.00 in
01:14 39.0 °F 36.9 °F 30.05 in Calm     92% 0.00 in
01:19 38.7 °F 36.6 °F 30.05 in Calm     92% 0.00 in
01:24 38.4 °F 36.6 °F 30.05 in Calm     93% 0.00 in
01:29 38.7 °F 37.1 °F 30.05 in Calm     94% 0.00 in
01:30 38.7 °F 37.1 °F 30.05 in Calm     94% 0.00 in
01:34 39.0 °F 37.4 °F 30.04 in Calm     94% 0.00 in
01:36 39.4 °F 37.8 °F 30.04 in Calm   1.0 mph 94% 0.00 in
01:41 40.0 °F 38.1 °F 30.04 in Calm     93% 0.00 in
01:46 40.2 °F 37.8 °F 30.04 in Calm     91% 0.00 in
01:47 40.2 °F 37.8 °F 30.04 in Calm     91% 0.00 in
01:52 39.8 °F 37.4 °F 30.04 in Calm     91% 0.00 in
01:58 39.1 °F 36.4 °F 30.04 in Calm     90% 0.00 in
02:03 38.9 °F 36.8 °F 30.04 in Calm     92% 0.00 in
02:04 38.8 °F 37.0 °F 30.04 in Calm     93% 0.00 in
02:08 39.0 °F 37.2 °F 30.04 in Calm   1.0 mph 93% 0.00 in
02:09 39.0 °F 37.2 °F 30.04 in Calm     93% 0.00 in
02:14 39.0 °F 36.9 °F 30.05 in Calm     92% 0.00 in
02:15 39.0 °F 36.9 °F 30.05 in Calm     92% 0.00 in
02:20 38.4 °F 36.3 °F 30.05 in Calm     92% 0.00 in
02:25 37.8 °F 35.7 °F 30.05 in SSE 1.0 mph 1.0 mph 92% 0.00 in
02:29 37.5 °F 35.7 °F 30.05 in SSE 2.0 mph 2.0 mph 93% 0.00 in
02:30 37.5 °F 35.9 °F 30.05 in SSE 2.0 mph 2.0 mph 94% 0.00 in
02:31 37.5 °F 35.9 °F 30.05 in SSE 2.0 mph 2.0 mph 94% 0.00 in
02:34 37.7 °F 36.4 °F 30.05 in SSE 1.0 mph 2.0 mph 95% 0.00 in
02:35 37.8 °F 36.5 °F 30.05 in SSE 2.0 mph 2.0 mph 95% 0.00 in
02:36 37.8 °F 36.5 °F 30.05 in SSE 2.0 mph 2.0 mph 95% 0.00 in
02:41 38.0 °F 37.0 °F 30.05 in SSE 1.0 mph 2.0 mph 96% 0.00 in
02:46 38.1 °F 36.8 °F 30.05 in SE 1.0 mph 2.0 mph 95% 0.00 in
02:51 38.5 °F 37.2 °F 30.05 in SE 1.0 mph 1.0 mph 95% 0.00 in
02:52 38.5 °F 37.2 °F 30.05 in SE 1.0 mph 1.0 mph 95% 0.00 in
02:53 38.5 °F 37.2 °F 30.05 in Calm   1.0 mph 95% 0.00 in
02:58 38.5 °F 36.9 °F 30.05 in Calm   1.0 mph 94% 0.00 in
03:03 38.1 °F 36.3 °F 30.05 in Calm     93% 0.00 in
03:08 37.5 °F 35.9 °F 30.05 in Calm     94% 0.00 in
03:13 37.4 °F 36.1 °F 30.05 in Calm     95% 0.00 in
03:14 37.4 °F 36.1 °F 30.05 in Calm     95% 0.00 in
03:19 37.6 °F 36.3 °F 30.05 in SE 1.0 mph 1.0 mph 95% 0.00 in
03:24 37.6 °F 36.3 °F 30.05 in SE 1.0 mph 1.0 mph 95% 0.00 in
03:29 37.7 °F 36.4 °F 30.05 in SE 1.0 mph 1.0 mph 95% 0.00 in
03:30 37.7 °F 36.4 °F 30.05 in SE 1.0 mph 1.0 mph 95% 0.00 in
03:34 37.9 °F 36.6 °F 30.05 in Calm   1.0 mph 95% 0.00 in
03:40 37.5 °F 35.9 °F 30.05 in Calm     94% 0.00 in
03:45 37.3 °F 36.0 °F 30.05 in Calm   1.0 mph 95% 0.00 in
03:50 37.3 °F 36.3 °F 30.05 in Calm     96% 0.00 in
03:51 37.3 °F 36.0 °F 30.05 in Calm     95% 0.00 in
03:54 37.2 °F 36.2 °F 30.05 in Calm     96% 0.00 in
03:56 37.2 °F 36.2 °F 30.05 in Calm     96% 0.00 in
03:57 37.3 °F 36.3 °F 30.05 in Calm     96% 0.00 in
03:59 37.3 °F 36.3 °F 30.05 in Calm     96% 0.00 in
04:04 37.1 °F 35.8 °F 30.05 in Calm     95% 0.00 in
04:09 36.6 °F 35.3 °F 30.05 in Calm     95% 0.00 in
04:14 36.6 °F 35.6 °F 30.05 in Calm     96% 0.00 in
04:19 36.6 °F 35.6 °F 30.05 in Calm   1.0 mph 96% 0.00 in
04:25 36.5 °F 35.7 °F 30.05 in Calm     97% 0.00 in
04:30 36.3 °F 35.5 °F 30.05 in Calm     97% 0.00 in
04:33 36.2 °F 35.2 °F 30.05 in Calm     96% 0.00 in
04:35 36.3 °F 35.5 °F 30.05 in Calm     97% 0.00 in
04:36 36.3 °F 35.5 °F 30.05 in Calm     97% 0.00 in
04:41 36.4 °F 35.6 °F 30.06 in Calm     97% 0.00 in
04:46 36.3 °F 35.5 °F 30.06 in Calm     97% 0.00 in
04:51 36.3 °F 35.5 °F 30.05 in Calm     97% 0.00 in
04:53 36.3 °F 35.5 °F 30.06 in Calm     97% 0.00 in
04:56 36.2 °F 35.4 °F 30.06 in Calm     97% 0.00 in
04:57 36.3 °F 35.5 °F 30.06 in Calm     97% 0.00 in
05:02 36.5 °F 35.7 °F 30.06 in Calm     97% 0.00 in
05:07 36.6 °F 36.1 °F 30.06 in Calm     98% 0.00 in
05:12 36.7 °F 36.2 °F 30.06 in Calm     98% 0.00 in
05:17 36.8 °F 36.3 °F 30.06 in Calm     98% 0.00 in
05:22 37.1 °F 36.6 °F 30.06 in Calm     98% 0.00 in
05:27 37.2 °F 36.7 °F 30.06 in Calm   1.0 mph 98% 0.00 in
05:30 37.2 °F 36.7 °F 30.06 in Calm   1.0 mph 98% 0.00 in
05:33 37.2 °F 36.7 °F 30.06 in Calm     98% 0.00 in
05:35 37.2 °F 36.7 °F 30.06 in Calm     98% 0.00 in
05:40 36.9 °F 36.1 °F 30.06 in Calm     97% 0.00 in
05:45 37.1 °F 36.6 °F 30.06 in Calm   1.0 mph 98% 0.00 in
05:50 37.3 °F 36.8 °F 30.06 in Calm     98% 0.00 in
05:51 37.4 °F 36.9 °F 30.06 in Calm     98% 0.00 in
05:56 37.5 °F 37.0 °F 30.06 in Calm     98% 0.00 in
05:58 37.5 °F 37.0 °F 30.06 in Calm     98% 0.00 in
06:01 37.4 °F 36.9 °F 30.06 in Calm   1.0 mph 98% 0.00 in
06:06 37.5 °F 37.0 °F 30.06 in Calm     98% 0.00 in
06:11 38.0 °F 37.5 °F 30.06 in Calm     98% 0.00 in
06:17 38.2 °F 37.7 °F 30.06 in Calm     98% 0.00 in
06:22 38.1 °F 37.6 °F 30.06 in Calm     98% 0.00 in
06:27 37.8 °F 37.3 °F 30.06 in Calm     98% 0.00 in
06:28 37.8 °F 37.3 °F 30.06 in Calm     98% 0.00 in
06:33 37.7 °F 37.2 °F 30.06 in Calm     98% 0.00 in
06:38 37.8 °F 37.3 °F 30.06 in Calm     98% 0.00 in
06:43 37.7 °F 37.2 °F 30.06 in Calm     98% 0.00 in
06:48 38.0 °F 37.5 °F 30.06 in Calm     98% 0.00 in
06:53 38.5 °F 38.0 °F 30.06 in Calm     98% 0.00 in
06:58 38.8 °F 38.3 °F 30.06 in Calm     98% 0.00 in
07:03 39.0 °F 38.5 °F 30.06 in West 1.0 mph 1.0 mph 98% 0.00 in
07:09 39.2 °F 38.7 °F 30.06 in Calm   1.0 mph 98% 0.00 in
07:14 39.3 °F 38.5 °F 30.07 in West 1.0 mph 1.0 mph 97% 0.00 in
07:19 39.0 °F 38.0 °F 30.07 in Calm   1.0 mph 96% 0.00 in
07:24 38.5 °F 37.5 °F 30.07 in Calm   1.0 mph 96% 0.00 in
07:29 38.1 °F 36.8 °F 30.07 in Calm     95% 0.00 in
07:34 37.6 °F 36.6 °F 30.07 in Calm     96% 0.00 in
07:35 37.5 °F 36.5 °F 30.07 in Calm     96% 0.00 in
07:37 37.4 °F 36.4 °F 30.07 in Calm     96% 0.00 in
07:39 37.2 °F 36.2 °F 30.07 in Calm     96% 0.00 in
07:44 37.1 °F 36.1 °F 30.07 in Calm     96% 0.00 in
07:49 37.2 °F 36.2 °F 30.08 in ENE 1.0 mph 1.0 mph 96% 0.00 in
07:54 37.5 °F 36.5 °F 30.07 in Calm     96% 0.00 in
07:55 37.5 °F 36.5 °F 30.08 in Calm     96% 0.00 in
08:00 38.1 °F 37.1 °F 30.07 in Calm     96% 0.00 in
08:05 38.9 °F 37.9 °F 30.07 in Calm   1.0 mph 96% 0.00 in
08:10 39.6 °F 38.3 °F 30.07 in Calm     95% 0.00 in
08:15 40.6 °F 39.3 °F 30.08 in Calm     95% 0.00 in
08:20 41.1 °F 39.2 °F 30.08 in ESE 1.0 mph 1.0 mph 93% 0.00 in
08:25 41.5 °F 39.6 °F 30.08 in ESE 1.0 mph 1.0 mph 93% 0.00 in
08:31 42.0 °F 40.1 °F 30.08 in ESE 2.0 mph 2.0 mph 93% 0.00 in
08:36 42.4 °F 40.2 °F 30.08 in SE 2.0 mph 3.0 mph 92% 0.00 in
08:41 42.9 °F 40.7 °F 30.08 in ESE 2.0 mph 3.0 mph 92% 0.00 in
08:46 43.5 °F 41.3 °F 30.08 in SE 2.0 mph 3.0 mph 92% 0.00 in
08:47 43.6 °F 41.4 °F 30.08 in SSE 2.0 mph 3.0 mph 92% 0.00 in
08:51 44.5 °F 42.0 °F 30.08 in SSE 3.0 mph 4.0 mph 91% 0.00 in
08:52 44.7 °F 42.0 °F 30.08 in SSE 4.0 mph 4.0 mph 90% 0.00 in
08:57 45.1 °F 42.1 °F 30.08 in SSE 4.0 mph 5.0 mph 89% 0.00 in
08:58 45.1 °F 42.1 °F 30.08 in SE 3.0 mph 5.0 mph 89% 0.00 in
09:02 45.4 °F 42.3 °F 30.09 in SE 2.0 mph 4.0 mph 89% 0.00 in
09:07 45.9 °F 42.8 °F 30.09 in SSE 2.0 mph 3.0 mph 89% 0.00 in
09:08 46.0 °F 43.0 °F 30.09 in SE 2.0 mph 3.0 mph 89% 0.00 in
09:13 46.8 °F 42.8 °F 30.09 in SW 1.0 mph 2.0 mph 86% 0.00 in
09:18 47.3 °F 43.3 °F 30.09 in SSW 2.0 mph 3.0 mph 86% 0.00 in
09:23 48.2 °F 43.9 °F 30.10 in SSW 2.0 mph 2.0 mph 85% 0.00 in
09:28 48.8 °F 43.2 °F 30.09 in SSE 2.0 mph 3.0 mph 81% 0.00 in
09:33 49.5 °F 43.3 °F 30.09 in SSE 2.0 mph 3.0 mph 79% 0.00 in
09:38 50.3 °F 43.7 °F 30.09 in SSW 3.0 mph 4.0 mph 78% 0.00 in
09:44 50.5 °F 43.6 °F 30.09 in SSW 2.0 mph 5.0 mph 77% 0.00 in
09:49 50.9 °F 44.0 °F 30.09 in South 3.0 mph 6.0 mph 77% 0.00 in
09:54 51.0 °F 44.7 °F 30.09 in South 2.0 mph 5.0 mph 79% 0.00 in
09:58 51.5 °F 45.5 °F 30.09 in SSW 3.0 mph 4.0 mph 80% 0.00 in
09:59 51.5 °F 44.9 °F 30.09 in SSW 4.0 mph 4.0 mph 78% 0.00 in
10:04 51.9 °F 44.2 °F 30.09 in South 6.0 mph 6.0 mph 75% 0.00 in
10:09 51.6 °F 43.6 °F 30.09 in SW 4.0 mph 6.0 mph 74% 0.00 in
10:14 51.9 °F 45.6 °F 30.09 in SW 5.0 mph 5.0 mph 79% 0.00 in
10:19 52.2 °F 44.5 °F 30.09 in South 2.0 mph 5.0 mph 75% 0.00 in
10:24 52.7 °F 45.0 °F 30.09 in SSW 3.0 mph 5.0 mph 75% 0.00 in
10:29 53.1 °F 44.3 °F 30.09 in SSE 2.0 mph 4.0 mph 72% 0.00 in
10:30 53.1 °F 44.3 °F 30.10 in South 2.0 mph 4.0 mph 72% 0.00 in
10:33 53.4 °F 44.6 °F 30.09 in WSW 2.0 mph 4.0 mph 72% 0.00 in
10:36 53.7 °F 44.9 °F 30.09 in SSE 4.0 mph 4.0 mph 72% 0.00 in
10:38 53.8 °F 45.0 °F 30.09 in WSW 2.0 mph 4.0 mph 72% 0.00 in
10:43 54.3 °F 44.7 °F 30.09 in SSW 1.0 mph 4.0 mph 70% 0.00 in
10:48 55.0 °F 46.2 °F 30.09 in SSE 3.0 mph 4.0 mph 72% 0.00 in
10:53 55.4 °F 44.6 °F 30.09 in SSE 1.0 mph 5.0 mph 67% 0.00 in
10:58 56.2 °F 43.8 °F 30.10 in SSE 5.0 mph 6.0 mph 63% 0.00 in
10:59 56.3 °F 43.0 °F 30.10 in SW 3.0 mph 6.0 mph 61% 0.00 in
11:03 56.3 °F 42.2 °F 30.10 in SW 3.0 mph 5.0 mph 59% 0.00 in
11:08 56.3 °F 42.2 °F 30.10 in SSW 5.0 mph 5.0 mph 59% 0.00 in
11:13 56.7 °F 43.4 °F 30.10 in SSW 3.0 mph 8.0 mph 61% 0.00 in
11:18 57.2 °F 42.6 °F 30.10 in WSW 6.0 mph 7.0 mph 58% 0.00 in
11:24 57.2 °F 40.2 °F 30.10 in WSW 2.0 mph 5.0 mph 53% 0.00 in
11:29 57.5 °F 41.0 °F 30.10 in SSW 3.0 mph 6.0 mph 54% 0.00 in
11:34 58.0 °F 43.3 °F 30.10 in SSW 3.0 mph 7.0 mph 58% 0.00 in
11:36 58.2 °F 43.5 °F 30.10 in SE 4.0 mph 7.0 mph 58% 0.00 in
11:39 58.3 °F 39.8 °F 30.10 in SE 7.0 mph 9.0 mph 50% 0.00 in
11:44 58.4 °F 36.6 °F 30.10 in SSE 4.0 mph 7.0 mph 44% 0.00 in
11:45 58.4 °F 37.7 °F 30.10 in South 3.0 mph 7.0 mph 46% 0.00 in
11:50 58.8 °F 41.2 °F 30.10 in South 6.0 mph 6.0 mph 52% 0.00 in
11:55 59.2 °F 41.6 °F 30.10 in SE 4.0 mph 6.0 mph 52% 0.00 in
11:56 59.3 °F 40.2 °F 30.10 in SSE 4.0 mph 6.0 mph 49% 0.00 in
12:00 59.5 °F 40.3 °F 30.10 in SSW 5.0 mph 7.0 mph 49% 0.00 in
12:01 59.4 °F 40.2 °F 30.10 in SSW 5.0 mph 7.0 mph 49% 0.00 in
12:06 59.4 °F 38.6 °F 30.10 in SE 7.0 mph 7.0 mph 46% 0.00 in
12:11 59.7 °F 38.3 °F 30.09 in WSW 4.0 mph 6.0 mph 45% 0.00 in
12:16 59.5 °F 39.8 °F 30.09 in WSW 4.0 mph 9.0 mph 48% 0.00 in
12:21 59.9 °F 41.2 °F 30.09 in SW 6.0 mph 7.0 mph 50% 0.00 in
12:26 60.2 °F 39.9 °F 30.09 in SE 3.0 mph 8.0 mph 47% 0.00 in
12:27 60.2 °F 40.5 °F 30.09 in SSE 4.0 mph 8.0 mph 48% 0.00 in
12:31 60.2 °F 39.9 °F 30.09 in SE 7.0 mph 7.0 mph 47% 0.00 in
12:32 60.2 °F 39.9 °F 30.09 in South 8.0 mph 9.0 mph 47% 0.00 in
12:33 60.2 °F 42.0 °F 30.09 in South 7.0 mph 9.0 mph 51% 0.00 in
12:37 60.5 °F 42.3 °F 30.08 in SSW 6.0 mph 11.0 mph 51% 0.00 in
12:38 60.5 °F 41.3 °F 30.08 in SSW 4.0 mph 11.0 mph 49% 0.00 in
12:43 60.9 °F 41.6 °F 30.08 in SW 4.0 mph 9.0 mph 49% 0.00 in
12:48 61.4 °F 43.1 °F 30.08 in SSE 8.0 mph 10.0 mph 51% 0.00 in
12:49 61.5 °F 43.2 °F 30.08 in SSE 7.0 mph 10.0 mph 51% 0.00 in
12:54 61.6 °F 41.7 °F 30.08 in South 4.0 mph 10.0 mph 48% 0.00 in
12:59 61.8 °F 43.0 °F 30.07 in SE 4.0 mph 8.0 mph 50% 0.00 in
13:04 62.4 °F 43.5 °F 30.07 in ESE 6.0 mph 7.0 mph 50% 0.00 in
13:10 62.6 °F 45.2 °F 30.07 in SSE 12.0 mph 12.0 mph 53% 0.00 in
13:15 62.4 °F 44.6 °F 30.07 in SE 3.0 mph 7.0 mph 52% 0.00 in
13:20 62.7 °F 43.3 °F 30.07 in Calm   7.0 mph 49% 0.00 in
13:25 63.0 °F 44.1 °F 30.07 in SSE 4.0 mph 9.0 mph 50% 0.00 in
13:30 63.2 °F 43.2 °F 30.07 in SSW 3.0 mph 9.0 mph 48% 0.00 in
13:31 63.3 °F 43.3 °F 30.07 in South 3.0 mph 7.0 mph 48% 0.00 in
13:35 63.3 °F 41.6 °F 30.06 in WSW 6.0 mph 10.0 mph 45% 0.00 in
13:36 63.3 °F 41.6 °F 30.06 in SSW 6.0 mph 10.0 mph 45% 0.00 in
13:41 63.9 °F 43.8 °F 30.06 in SSE 8.0 mph 10.0 mph 48% 0.00 in
13:46 64.0 °F 41.7 °F 30.06 in SW 8.0 mph 10.0 mph 44% 0.00 in
13:51 63.7 °F 40.8 °F 30.07 in WSW 6.0 mph 10.0 mph 43% 0.00 in
13:52 63.7 °F 41.4 °F 30.06 in WSW 5.0 mph 10.0 mph 44% 0.00 in
13:56 64.3 °F 43.1 °F 30.06 in South 6.0 mph 7.0 mph 46% 0.00 in
13:57 64.4 °F 43.2 °F 30.06 in SSW 8.0 mph 8.0 mph 46% 0.00 in
14:02 64.5 °F 41.5 °F 30.06 in South 6.0 mph 12.0 mph 43% 0.00 in
14:07 64.9 °F 41.3 °F 30.06 in WSW 7.0 mph 12.0 mph 42% 0.00 in
14:12 65.1 °F 40.8 °F 30.06 in South 3.0 mph 13.0 mph 41% 0.00 in
14:18 65.7 °F 45.5 °F 30.06 in SSE 6.0 mph 6.0 mph 48% 0.00 in
14:23 65.8 °F 41.5 °F 30.05 in SSW 2.0 mph 11.0 mph 41% 0.00 in
14:28 65.5 °F 43.0 °F 30.05 in SW 8.0 mph 11.0 mph 44% 0.00 in
14:33 65.8 °F 43.9 °F 30.05 in WSW 6.0 mph 9.0 mph 45% 0.00 in
14:34 65.8 °F 43.9 °F 30.05 in SW 5.0 mph 9.0 mph 45% 0.00 in
14:39 66.0 °F 42.3 °F 30.04 in SW 8.0 mph 12.0 mph 42% 0.00 in
14:44 65.9 °F 41.6 °F 30.04 in SW 9.0 mph 9.0 mph 41% 0.00 in
14:49 66.1 °F 43.6 °F 30.04 in SSE 6.0 mph 11.0 mph 44% 0.00 in
14:54 66.3 °F 41.9 °F 30.04 in SE 7.0 mph 8.0 mph 41% 0.00 in
14:59 66.6 °F 45.8 °F 30.03 in SSE 9.0 mph 9.0 mph 47% 0.00 in
15:04 66.4 °F 43.2 °F 30.03 in SE 10.0 mph 12.0 mph 43% 0.00 in
15:09 66.5 °F 43.9 °F 30.03 in SSE 9.0 mph 11.0 mph 44% 0.00 in
15:14 66.7 °F 42.9 °F 30.02 in SSW 6.0 mph 9.0 mph 42% 0.00 in
15:19 67.1 °F 44.5 °F 30.02 in SSE 9.0 mph 12.0 mph 44% 0.00 in
15:24 67.0 °F 44.4 °F 30.02 in South 5.0 mph 8.0 mph 44% 0.00 in
15:29 67.7 °F 46.2 °F 30.01 in SSE 6.0 mph 6.0 mph 46% 0.00 in
15:30 67.8 °F 46.3 °F 30.01 in South 7.0 mph 7.0 mph 46% 0.00 in
15:31 67.8 °F 46.3 °F 30.01 in SSE 6.0 mph 9.0 mph 46% 0.00 in
15:34 67.9 °F 44.6 °F 30.01 in SSE 8.0 mph 10.0 mph 43% 0.00 in
15:36 67.8 °F 45.7 °F 30.01 in SE 5.0 mph 9.0 mph 45% 0.00 in
15:39 68.1 °F 44.8 °F 30.01 in SSE 11.0 mph 12.0 mph 43% 0.00 in
15:44 68.1 °F 43.5 °F 30.01 in South 8.0 mph 13.0 mph 41% 0.00 in
15:49 68.0 °F 45.3 °F 30.00 in SSE 8.0 mph 9.0 mph 44% 0.00 in
15:54 68.4 °F 43.2 °F 30.00 in SSE 5.0 mph 12.0 mph 40% 0.00 in
15:55 68.4 °F 43.2 °F 30.00 in South 4.0 mph 12.0 mph 40% 0.00 in
16:00 68.3 °F 44.3 °F 30.00 in SW 6.0 mph 15.0 mph 42% 0.00 in
16:05 68.1 °F 40.2 °F 29.99 in SSW 6.0 mph 9.0 mph 36% 0.00 in
16:10 68.1 °F 43.5 °F 29.99 in SE 9.0 mph 14.0 mph 41% 0.00 in
16:15 68.1 °F 42.9 °F 29.99 in SSE 6.0 mph 12.0 mph 40% 0.00 in
16:20 68.2 °F 44.3 °F 29.99 in SSE 5.0 mph 13.0 mph 42% 0.00 in
16:21 68.2 °F 43.0 °F 29.99 in South 6.0 mph 13.0 mph 40% 0.00 in
16:26 68.7 °F 43.4 °F 29.98 in SSE 7.0 mph 9.0 mph 40% 0.00 in
16:31 68.7 °F 42.1 °F 29.98 in SSW 8.0 mph 14.0 mph 38% 0.00 in
16:32 68.7 °F 42.8 °F 29.98 in SW 6.0 mph 14.0 mph 39% 0.00 in
16:36 69.2 °F 40.4 °F 29.98 in SW 4.0 mph 9.0 mph 35% 0.00 in
16:37 69.2 °F 41.8 °F 29.98 in South 7.0 mph 9.0 mph 37% 0.00 in
16:42 69.3 °F 42.6 °F 29.98 in South 10.0 mph 14.0 mph 38% 0.00 in
16:47 69.2 °F 41.1 °F 29.97 in SW 7.0 mph 11.0 mph 36% 0.00 in
16:52 69.2 °F 41.1 °F 29.98 in SE 9.0 mph 13.0 mph 36% 0.00 in
16:53 69.2 °F 41.1 °F 29.98 in SSE 8.0 mph 13.0 mph 36% 0.00 in
16:58 69.4 °F 41.3 °F 29.97 in SSW 5.0 mph 9.0 mph 36% 0.00 in
17:03 69.5 °F 41.4 °F 29.97 in ESE 10.0 mph 12.0 mph 36% 0.00 in
17:08 69.8 °F 43.8 °F 29.97 in SSW 6.0 mph 8.0 mph 39% 0.00 in
17:13 70.1 °F 45.3 °F 29.97 in SE 7.0 mph 7.0 mph 41% 0.00 in
17:18 70.1 °F 44.0 °F 29.97 in SSE 9.0 mph 9.0 mph 39% 0.00 in
17:23 70.3 °F 40.6 °F 29.96 in South 6.0 mph 11.0 mph 34% 0.00 in
17:28 70.1 °F 41.9 °F 29.96 in South 8.0 mph 12.0 mph 36% 0.00 in
17:29 70.2 °F 42.0 °F 29.96 in SE 10.0 mph 12.0 mph 36% 0.00 in
17:30 70.1 °F 41.9 °F 29.96 in SE 9.0 mph 12.0 mph 36% 0.00 in
17:34 70.0 °F 42.6 °F 29.96 in SSW 2.0 mph 10.0 mph 37% 0.00 in
17:36 70.1 °F 43.3 °F 29.96 in South 9.0 mph 11.0 mph 38% 0.00 in
17:39 70.1 °F 41.2 °F 29.96 in SSW 6.0 mph 11.0 mph 35% 0.00 in
17:45 70.2 °F 40.5 °F 29.96 in WSW 5.0 mph 10.0 mph 34% 0.00 in
17:50 70.4 °F 40.0 °F 29.96 in SSW 5.0 mph 13.0 mph 33% 0.00 in
17:55 70.6 °F 41.7 °F 29.96 in South 6.0 mph 12.0 mph 35% 0.00 in
18:00 70.8 °F 42.5 °F 29.96 in South 8.0 mph 10.0 mph 36% 0.00 in
18:05 70.7 °F 41.7 °F 29.96 in SE 5.0 mph 10.0 mph 35% 0.00 in
18:10 70.7 °F 40.2 °F 29.96 in South 5.0 mph 9.0 mph 33% 0.00 in
18:15 70.9 °F 42.6 °F 29.96 in SE 7.0 mph 11.0 mph 36% 0.00 in
18:20 70.5 °F 43.0 °F 29.96 in SSW 2.0 mph 9.0 mph 37% 0.00 in
18:25 70.8 °F 42.5 °F 29.95 in SSE 4.0 mph 7.0 mph 36% 0.00 in
18:30 70.5 °F 41.6 °F 29.95 in SE 10.0 mph 10.0 mph 35% 0.00 in
18:32 70.3 °F 41.4 °F 29.95 in SSW 4.0 mph 10.0 mph 35% 0.00 in
18:33 70.3 °F 43.5 °F 29.95 in SSE 6.0 mph 10.0 mph 38% 0.00 in
18:35 70.2 °F 42.0 °F 29.95 in SSE 5.0 mph 8.0 mph 36% 0.00 in
18:36 70.1 °F 41.9 °F 29.95 in South 6.0 mph 8.0 mph 36% 0.00 in
18:41 70.0 °F 42.6 °F 29.95 in SSE 6.0 mph 9.0 mph 37% 0.00 in
18:46 69.8 °F 43.1 °F 29.95 in SSE 4.0 mph 9.0 mph 38% 0.00 in
18:51 69.7 °F 42.3 °F 29.95 in SSE 6.0 mph 6.0 mph 37% 0.00 in
18:52 69.7 °F 42.3 °F 29.95 in South 6.0 mph 6.0 mph 37% 0.00 in
18:56 69.7 °F 42.3 °F 29.95 in SSE 4.0 mph 8.0 mph 37% 0.00 in
18:57 69.7 °F 42.3 °F 29.95 in SSE 5.0 mph 8.0 mph 37% 0.00 in
19:00 69.4 °F 41.3 °F 29.95 in SSE 3.0 mph 7.0 mph 36% 0.00 in
19:05 68.7 °F 43.4 °F 29.95 in South 4.0 mph 6.0 mph 40% 0.00 in
19:10 68.2 °F 43.6 °F 29.94 in SSE 4.0 mph 7.0 mph 41% 0.00 in
19:15 67.9 °F 40.7 °F 29.94 in SE 5.0 mph 9.0 mph 37% 0.00 in
19:20 67.7 °F 43.2 °F 29.94 in SE 4.0 mph 7.0 mph 41% 0.00 in
19:25 67.1 °F 43.9 °F 29.94 in SSE 4.0 mph 5.0 mph 43% 0.00 in
19:26 67.1 °F 43.9 °F 29.94 in SE 3.0 mph 5.0 mph 43% 0.00 in
19:30 66.6 °F 44.6 °F 29.94 in SSE 2.0 mph 4.0 mph 45% 0.00 in
19:31 66.6 °F 44.6 °F 29.94 in SSE 3.0 mph 4.0 mph 45% 0.00 in
19:35 66.2 °F 44.2 °F 29.94 in SE 4.0 mph 4.0 mph 45% 0.00 in
19:36 66.1 °F 44.2 °F 29.94 in SE 3.0 mph 4.0 mph 45% 0.00 in
19:40 66.1 °F 42.4 °F 29.93 in SE 3.0 mph 5.0 mph 42% 0.00 in
19:46 66.2 °F 43.7 °F 29.94 in SSE 2.0 mph 4.0 mph 44% 0.00 in
19:51 66.3 °F 43.8 °F 29.94 in SE 3.0 mph 4.0 mph 44% 0.00 in
19:56 66.2 °F 42.5 °F 29.94 in SE 3.0 mph 4.0 mph 42% 0.00 in
19:57 66.2 °F 41.8 °F 29.94 in SSE 4.0 mph 4.0 mph 41% 0.00 in
20:01 66.2 °F 42.5 °F 29.94 in SE 2.0 mph 4.0 mph 42% 0.00 in
20:02 66.2 °F 42.5 °F 29.94 in SE 2.0 mph 4.0 mph 42% 0.00 in
20:06 66.0 °F 42.3 °F 29.94 in SE 2.0 mph 2.0 mph 42% 0.00 in
20:11 65.6 °F 43.1 °F 29.94 in SE 1.0 mph 2.0 mph 44% 0.00 in
20:16 65.1 °F 43.3 °F 29.94 in SE 2.0 mph 2.0 mph 45% 0.00 in
20:21 64.8 °F 43.0 °F 29.94 in SE 2.0 mph 2.0 mph 45% 0.00 in
20:26 64.5 °F 42.7 °F 29.94 in SE 3.0 mph 4.0 mph 45% 0.00 in
20:28 64.6 °F 42.8 °F 29.94 in SE 4.0 mph 4.0 mph 45% 0.00 in
20:32 64.5 °F 42.7 °F 29.93 in SE 3.0 mph 5.0 mph 45% 0.00 in
20:33 64.5 °F 42.7 °F 29.93 in SE 3.0 mph 5.0 mph 45% 0.00 in
20:34 64.5 °F 43.3 °F 29.94 in SE 4.0 mph 4.0 mph 46% 0.00 in
20:38 64.3 °F 43.1 °F 29.93 in ESE 4.0 mph 5.0 mph 46% 0.00 in
20:43 64.1 °F 42.9 °F 29.94 in SE 4.0 mph 4.0 mph 46% 0.00 in
20:48 63.9 °F 43.3 °F 29.94 in SE 3.0 mph 6.0 mph 47% 0.00 in
20:53 63.6 °F 43.0 °F 29.94 in SE 4.0 mph 4.0 mph 47% 0.00 in
20:57 63.3 °F 43.3 °F 29.94 in SE 3.0 mph 4.0 mph 48% 0.00 in
20:58 63.3 °F 43.3 °F 29.94 in ESE 3.0 mph 4.0 mph 48% 0.00 in
21:02 63.1 °F 43.7 °F 29.94 in ESE 4.0 mph 4.0 mph 49% 0.00 in
21:04 63.1 °F 43.7 °F 29.94 in ESE 4.0 mph 4.0 mph 49% 0.00 in
21:09 62.9 °F 43.5 °F 29.94 in ESE 4.0 mph 4.0 mph 49% 0.00 in
21:13 62.9 °F 43.5 °F 29.94 in SE 3.0 mph 4.0 mph 49% 0.00 in
21:19 62.8 °F 43.4 °F 29.94 in SE 3.0 mph 5.0 mph 49% 0.00 in
21:24 62.6 °F 43.7 °F 29.94 in SE 4.0 mph 5.0 mph 50% 0.00 in
21:25 62.6 °F 43.7 °F 29.94 in SE 4.0 mph 5.0 mph 50% 0.00 in
21:29 62.6 °F 43.7 °F 29.94 in SE 5.0 mph 5.0 mph 50% 0.00 in
21:30 62.6 °F 43.2 °F 29.94 in ESE 5.0 mph 5.0 mph 49% 0.00 in
21:31 62.6 °F 43.2 °F 29.94 in SE 3.0 mph 5.0 mph 49% 0.00 in
21:34 62.6 °F 43.2 °F 29.94 in ESE 4.0 mph 6.0 mph 49% 0.00 in
21:36 62.6 °F 43.7 °F 29.94 in SE 5.0 mph 6.0 mph 50% 0.00 in
21:37 62.6 °F 43.7 °F 29.94 in SE 4.0 mph 6.0 mph 50% 0.00 in
21:40 62.5 °F 43.6 °F 29.94 in SE 4.0 mph 7.0 mph 50% 0.00 in
21:43 62.3 °F 43.4 °F 29.94 in SE 5.0 mph 6.0 mph 50% 0.00 in
21:48 62.2 °F 42.8 °F 29.94 in SE 5.0 mph 6.0 mph 49% 0.00 in
21:52 62.0 °F 42.6 °F 29.94 in SE 5.0 mph 7.0 mph 49% 0.00 in
21:53 62.1 °F 42.7 °F 29.95 in SE 5.0 mph 7.0 mph 49% 0.00 in
21:58 61.8 °F 43.0 °F 29.95 in SE 5.0 mph 6.0 mph 50% 0.00 in
22:03 61.7 °F 42.4 °F 29.95 in SE 5.0 mph 8.0 mph 49% 0.00 in
22:08 61.5 °F 42.2 °F 29.95 in SE 3.0 mph 6.0 mph 49% 0.00 in
22:13 61.1 °F 42.3 °F 29.95 in SE 3.0 mph 5.0 mph 50% 0.00 in
22:18 60.4 °F 42.7 °F 29.95 in South 2.0 mph 4.0 mph 52% 0.00 in
22:23 59.9 °F 42.7 °F 29.95 in SSE 2.0 mph 3.0 mph 53% 0.00 in
22:28 59.4 °F 42.8 °F 29.96 in SSE 3.0 mph 3.0 mph 54% 0.00 in
22:29 59.3 °F 43.2 °F 29.96 in SE 2.0 mph 3.0 mph 55% 0.00 in
22:30 59.2 °F 42.6 °F 29.95 in SE 3.0 mph 3.0 mph 54% 0.00 in
22:34 58.9 °F 42.8 °F 29.95 in SSE 2.0 mph 3.0 mph 55% 0.00 in
22:35 58.9 °F 42.8 °F 29.95 in SE 2.0 mph 3.0 mph 55% 0.00 in
22:40 58.9 °F 42.3 °F 29.95 in SE 2.0 mph 3.0 mph 54% 0.00 in
22:45 58.9 °F 42.3 °F 29.95 in SE 3.0 mph 5.0 mph 54% 0.00 in
22:46 58.9 °F 42.3 °F 29.95 in SE 3.0 mph 5.0 mph 54% 0.00 in
22:50 59.2 °F 42.1 °F 29.95 in SSE 4.0 mph 4.0 mph 53% 0.00 in
22:51 59.2 °F 41.6 °F 29.95 in SSE 5.0 mph 6.0 mph 52% 0.00 in
22:56 59.4 °F 41.8 °F 29.95 in SSE 3.0 mph 4.0 mph 52% 0.00 in
22:57 59.3 °F 41.7 °F 29.95 in SE 3.0 mph 4.0 mph 52% 0.00 in
22:58 59.3 °F 42.2 °F 29.95 in SE 2.0 mph 4.0 mph 53% 0.00 in
23:03 59.1 °F 41.5 °F 29.95 in SE 4.0 mph 5.0 mph 52% 0.00 in
23:08 59.1 °F 41.5 °F 29.95 in SE 4.0 mph 5.0 mph 52% 0.00 in
23:13 59.2 °F 41.6 °F 29.96 in SSE 3.0 mph 6.0 mph 52% 0.00 in
23:18 58.8 °F 41.7 °F 29.96 in SSE 2.0 mph 3.0 mph 53% 0.00 in
23:23 58.6 °F 41.5 °F 29.95 in SSE 4.0 mph 4.0 mph 53% 0.00 in
23:28 58.5 °F 41.5 °F 29.96 in SSE 2.0 mph 4.0 mph 53% 0.00 in
23:31 58.2 °F 41.7 °F 29.96 in SSW 1.0 mph 3.0 mph 54% 0.00 in
23:33 58.2 °F 41.7 °F 29.96 in SSE 1.0 mph 2.0 mph 54% 0.00 in
23:36 58.2 °F 41.2 °F 29.96 in SSE 2.0 mph 2.0 mph 53% 0.00 in
23:41 58.0 °F 41.5 °F 29.96 in SE 2.0 mph 2.0 mph 54% 0.00 in
23:42 58.0 °F 41.5 °F 29.96 in SE 2.0 mph 2.0 mph 54% 0.00 in
23:47 57.6 °F 41.6 °F 29.95 in SSE 2.0 mph 2.0 mph 55% 0.00 in
23:52 57.3 °F 41.8 °F 29.95 in SE 3.0 mph 3.0 mph 56% 0.00 in
23:53 57.3 °F 41.8 °F 29.95 in SSE 2.0 mph 4.0 mph 56% 0.00 in
23:57 57.3 °F 41.8 °F 29.95 in SSE 4.0 mph 4.0 mph 56% 0.00 in
23:58 57.4 °F 41.8 °F 29.95 in SE 3.0 mph 4.0 mph 56% 0.00 in
Compliments of Weather Underground